createdAt,value
2023-01-17T00:00:05.991Z,18.50
2023-01-17T00:02:32.864Z,20.50
2023-01-17T00:05:18.489Z,20.40
2023-01-17T00:08:03.912Z,17.70
2023-01-17T00:10:30.707Z,19.10
2023-01-17T00:13:03.763Z,18.10
2023-01-17T00:15:31.024Z,20.80
2023-01-17T00:17:58.073Z,17.70
2023-01-17T00:20:45.716Z,12.80
2023-01-17T00:23:32.778Z,15.60
2023-01-17T00:26:05.710Z,16.60
2023-01-17T00:28:36.877Z,20.20
2023-01-17T00:31:04.177Z,16.10
2023-01-17T00:33:31.029Z,15.00
2023-01-17T00:35:58.354Z,21.10
2023-01-17T00:38:26.627Z,17.40
2023-01-17T00:40:53.479Z,20.30
2023-01-17T00:43:40.524Z,18.10
2023-01-17T00:46:26.245Z,22.40
2023-01-17T00:49:11.736Z,18.90
2023-01-17T00:51:57.305Z,20.70
2023-01-17T00:54:42.967Z,18.20
2023-01-17T00:57:28.520Z,25.70
2023-01-17T01:00:14.161Z,19.70
2023-01-17T01:02:59.735Z,17.60
2023-01-17T01:05:45.304Z,23.30
2023-01-17T01:08:39.219Z,14.20
2023-01-17T01:11:26.370Z,18.70
2023-01-17T01:14:11.991Z,20.60
2023-01-17T01:16:57.568Z,26.50
2023-01-17T01:19:43.267Z,18.70
2023-01-17T01:22:28.769Z,14.70
2023-01-17T01:25:14.386Z,19.90
2023-01-17T01:27:59.959Z,24.00
2023-01-17T01:30:45.478Z,22.30
2023-01-17T01:33:19.217Z,23.20
2023-01-17T01:38:14.087Z,24.40
2023-01-17T01:40:48.977Z,24.80
2023-01-17T01:43:18.039Z,24.70
2023-01-17T01:45:47.728Z,31.30
2023-01-17T01:48:33.647Z,21.40
2023-01-17T01:51:03.010Z,21.80
2023-01-17T01:53:29.823Z,22.40
2023-01-17T01:55:56.487Z,23.20
2023-01-17T01:58:24.834Z,25.60
2023-01-17T02:00:51.612Z,21.40
2023-01-17T02:03:21.983Z,30.30
2023-01-17T02:05:48.624Z,27.70
2023-01-17T02:08:16.728Z,23.00
2023-01-17T02:10:46.936Z,21.40
2023-01-17T02:13:15.786Z,18.60
2023-01-17T02:16:07.412Z,34.20
2023-01-17T02:19:11.023Z,17.80
2023-01-17T02:21:49.023Z,17.50
2023-01-17T02:24:37.017Z,28.90
2023-01-17T02:27:24.040Z,23.50
2023-01-17T02:30:11.378Z,21.60
2023-01-17T02:32:40.219Z,23.40
2023-01-17T02:35:20.496Z,22.90
2023-01-17T02:38:25.498Z,21.50
2023-01-17T02:40:57.811Z,26.30
2023-01-17T02:43:24.556Z,23.80
2023-01-17T02:45:51.251Z,21.50
2023-01-17T02:48:19.876Z,19.20
2023-01-17T02:51:01.887Z,25.00
2023-01-17T02:53:50.250Z,19.70
2023-01-17T02:56:34.416Z,22.80
2023-01-17T02:59:26.169Z,19.70
2023-01-17T03:01:59.061Z,20.70
2023-01-17T03:04:44.968Z,21.30
2023-01-17T03:07:16.387Z,19.40
2023-01-17T03:09:47.184Z,15.40
2023-01-17T03:12:13.859Z,12.80
2023-01-17T03:14:40.559Z,23.20
2023-01-17T03:17:07.223Z,22.30
2023-01-17T03:19:33.951Z,20.30
2023-01-17T03:22:00.646Z,19.60
2023-01-17T03:24:27.330Z,25.20
2023-01-17T03:26:54.334Z,26.60
2023-01-17T03:29:21.026Z,26.70
2023-01-17T03:31:47.751Z,18.90
2023-01-17T03:34:14.526Z,19.90
2023-01-17T03:36:42.253Z,22.50
2023-01-17T03:39:09.074Z,22.30
2023-01-17T03:41:35.750Z,23.80
2023-01-17T03:44:02.546Z,25.80
2023-01-17T03:46:29.456Z,22.20
2023-01-17T03:48:56.223Z,18.70
2023-01-17T03:51:23.046Z,26.30
2023-01-17T03:53:50.788Z,25.40
2023-01-17T03:56:17.654Z,22.20
2023-01-17T03:58:44.302Z,14.10
2023-01-17T04:01:11.606Z,21.80
2023-01-17T04:03:38.984Z,24.00
2023-01-17T04:06:06.448Z,24.00
2023-01-17T04:08:33.186Z,18.40
2023-01-17T04:11:00.131Z,28.80
2023-01-17T04:13:26.824Z,21.60
2023-01-17T04:15:53.603Z,29.60
2023-01-17T04:18:21.117Z,27.40
2023-01-17T04:20:47.811Z,23.80
2023-01-17T04:23:14.585Z,29.80
2023-01-17T04:25:41.301Z,26.10
2023-01-17T04:28:08.140Z,34.40
2023-01-17T04:30:34.937Z,26.30
2023-01-17T04:33:01.777Z,23.70
2023-01-17T04:35:33.394Z,25.60
2023-01-17T04:38:00.531Z,17.90
2023-01-17T04:40:27.304Z,25.30
2023-01-17T04:42:54.441Z,24.70
2023-01-17T04:45:21.327Z,31.80
2023-01-17T04:47:48.221Z,26.50
2023-01-17T04:50:14.948Z,33.70
2023-01-17T04:52:41.602Z,29.30
2023-01-17T04:55:08.846Z,31.90
2023-01-17T04:57:35.621Z,32.60
2023-01-17T05:00:02.524Z,22.10
2023-01-17T05:02:29.292Z,25.50
2023-01-17T05:04:56.110Z,19.10
2023-01-17T05:07:22.812Z,25.70
2023-01-17T05:09:49.556Z,35.70
2023-01-17T05:12:16.295Z,28.40
2023-01-17T05:14:42.983Z,36.90
2023-01-17T05:17:11.362Z,41.20
2023-01-17T05:19:38.238Z,35.30
2023-01-17T05:22:15.372Z,25.80
2023-01-17T05:24:43.259Z,33.70
2023-01-17T05:27:10.672Z,36.10
2023-01-17T05:29:37.447Z,34.80
2023-01-17T05:32:04.879Z,41.80
2023-01-17T05:34:31.779Z,35.50
2023-01-17T05:36:58.741Z,37.80
2023-01-17T05:39:26.487Z,38.90
2023-01-17T05:41:53.490Z,32.00
2023-01-17T05:44:20.267Z,33.10
2023-01-17T05:46:46.976Z,40.40
2023-01-17T05:49:13.708Z,35.20
2023-01-17T05:51:40.479Z,39.40
2023-01-17T05:54:07.194Z,35.00
2023-01-17T05:56:34.182Z,27.90
2023-01-17T05:59:01.119Z,26.60
2023-01-17T06:01:27.865Z,33.60
2023-01-17T06:03:54.643Z,36.80
2023-01-17T06:06:21.551Z,39.20
2023-01-17T06:08:48.289Z,24.60
2023-01-17T06:11:15.037Z,36.40
2023-01-17T06:13:41.747Z,32.20
2023-01-17T06:16:08.645Z,32.10
2023-01-17T06:18:35.660Z,40.30
2023-01-17T06:21:02.439Z,37.70
2023-01-17T06:23:29.131Z,35.30
2023-01-17T06:25:55.826Z,36.90
2023-01-17T06:28:23.239Z,38.50
2023-01-17T06:30:50.293Z,34.20
2023-01-17T06:33:17.049Z,33.50
2023-01-17T06:35:50.506Z,37.20
2023-01-17T06:38:17.326Z,37.40
2023-01-17T06:40:44.055Z,47.20
2023-01-17T06:43:10.806Z,33.30
2023-01-17T06:45:37.505Z,25.00
2023-01-17T06:48:05.396Z,27.30
2023-01-17T06:50:32.946Z,34.20
2023-01-17T06:53:04.571Z,38.10
2023-01-17T06:55:33.774Z,45.50
2023-01-17T06:58:02.798Z,37.00
2023-01-17T07:00:30.985Z,31.50
2023-01-17T07:02:58.157Z,42.10
2023-01-17T07:05:25.037Z,39.00
2023-01-17T07:07:51.964Z,45.30
2023-01-17T07:10:18.836Z,24.30
2023-01-17T07:12:45.652Z,44.30
2023-01-17T07:15:12.739Z,36.50
2023-01-17T07:17:39.612Z,31.10
2023-01-17T07:20:07.084Z,34.60
2023-01-17T07:22:33.992Z,35.50
2023-01-17T07:25:00.764Z,36.20
2023-01-17T07:27:30.460Z,27.30
2023-01-17T07:29:57.734Z,36.50
2023-01-17T07:32:26.804Z,32.60
2023-01-17T07:34:54.529Z,29.60
2023-01-17T07:37:21.317Z,48.20
2023-01-17T07:39:48.141Z,34.20
2023-01-17T07:42:15.159Z,47.70
2023-01-17T07:44:44.108Z,27.30
2023-01-17T07:47:11.584Z,40.40
2023-01-17T07:49:38.281Z,46.10
2023-01-17T07:52:08.193Z,46.00
2023-01-17T07:54:34.898Z,46.80
2023-01-17T07:57:01.869Z,48.40
2023-01-17T07:59:28.699Z,40.70
2023-01-17T08:01:55.518Z,42.40
2023-01-17T08:04:25.861Z,49.90
2023-01-17T08:06:55.177Z,51.60
2023-01-17T08:09:22.076Z,44.10
2023-01-17T08:11:48.871Z,34.60
2023-01-17T08:14:15.613Z,46.90
2023-01-17T08:16:42.360Z,42.60
2023-01-17T08:19:10.261Z,48.30
2023-01-17T08:21:36.955Z,46.20
2023-01-17T08:24:04.045Z,44.70
2023-01-17T08:26:30.839Z,40.30
2023-01-17T08:29:00.666Z,50.50
2023-01-17T08:31:28.774Z,46.40
2023-01-17T08:33:56.701Z,41.50
2023-01-17T08:36:25.829Z,39.40
2023-01-17T08:38:53.319Z,40.80
2023-01-17T08:41:21.024Z,47.10
2023-01-17T08:43:48.611Z,42.50
2023-01-17T08:46:15.321Z,54.90
2023-01-17T08:48:42.009Z,53.90
2023-01-17T08:51:08.814Z,47.60
2023-01-17T08:53:35.497Z,39.20
2023-01-17T08:56:03.355Z,47.80
2023-01-17T08:58:30.854Z,48.90
2023-01-17T09:01:03.015Z,50.00
2023-01-17T09:03:31.025Z,46.10
2023-01-17T09:06:05.724Z,51.70
2023-01-17T09:08:33.045Z,45.70
2023-01-17T09:11:06.791Z,44.30
2023-01-17T09:16:00.424Z,50.80
2023-01-17T09:18:27.320Z,41.40
2023-01-17T09:20:55.269Z,41.60
2023-01-17T09:23:22.846Z,50.60
2023-01-17T09:25:56.738Z,46.00
2023-01-17T09:28:24.286Z,56.30
2023-01-17T09:30:51.029Z,48.30
2023-01-17T09:33:17.873Z,47.30
2023-01-17T09:35:45.410Z,54.40
2023-01-17T09:38:12.401Z,51.20
2023-01-17T09:40:43.959Z,49.50
2023-01-17T09:43:20.484Z,45.60
2023-01-17T09:45:47.204Z,56.60
2023-01-17T09:48:17.858Z,48.00
2023-01-17T09:50:48.185Z,46.20
2023-01-17T09:53:20.955Z,63.30
2023-01-17T09:55:58.145Z,43.10
2023-01-17T09:58:41.919Z,47.80
2023-01-17T10:01:17.464Z,46.00
2023-01-17T10:03:53.429Z,42.30
2023-01-17T10:06:38.100Z,58.70
2023-01-17T10:09:43.003Z,51.30
2023-01-17T10:12:12.687Z,52.70
2023-01-17T10:15:03.176Z,51.40
2023-01-17T10:17:36.366Z,39.60
2023-01-17T10:20:09.439Z,43.20
2023-01-17T10:22:57.828Z,44.00
2023-01-17T10:25:43.096Z,45.30
2023-01-17T10:28:18.763Z,53.40
2023-01-17T10:30:50.528Z,51.50
2023-01-17T10:33:22.515Z,39.20
2023-01-17T10:35:55.362Z,55.80
2023-01-17T10:38:24.215Z,49.40
2023-01-17T10:41:03.032Z,48.70
2023-01-17T10:43:42.054Z,62.40
2023-01-17T10:46:14.620Z,49.80
2023-01-17T10:48:43.920Z,53.90
2023-01-17T10:51:28.985Z,56.70
2023-01-17T10:54:12.191Z,56.70
2023-01-17T10:56:40.754Z,61.70
2023-01-17T10:59:26.022Z,55.10
2023-01-17T11:01:52.806Z,63.90
2023-01-17T11:04:23.245Z,63.30
2023-01-17T11:07:10.369Z,57.30
2023-01-17T11:09:54.237Z,53.10
2023-01-17T11:12:43.328Z,54.50
2023-01-17T11:15:10.007Z,58.50
2023-01-17T11:17:38.037Z,61.40
2023-01-17T11:20:29.799Z,58.10
2023-01-17T11:23:29.590Z,58.40
2023-01-17T11:25:58.308Z,62.00
2023-01-17T11:28:32.861Z,56.30
2023-01-17T11:31:01.364Z,47.10
2023-01-17T11:33:35.969Z,51.40
2023-01-17T11:36:02.664Z,52.00
2023-01-17T11:38:29.363Z,58.70
2023-01-17T11:41:16.076Z,55.70
2023-01-17T11:43:53.289Z,60.40
2023-01-17T11:46:23.925Z,46.40
2023-01-17T11:48:51.744Z,50.20
2023-01-17T11:51:25.543Z,46.10
2023-01-17T11:56:33.676Z,53.60
2023-01-17T11:59:28.827Z,52.30
2023-01-17T12:02:40.203Z,54.50
2023-01-17T12:05:28.270Z,55.20
2023-01-17T12:08:20.125Z,47.40
2023-01-17T12:10:52.888Z,50.10
2023-01-17T12:14:00.676Z,52.20
2023-01-17T12:16:52.060Z,56.60
2023-01-17T12:19:34.138Z,55.80
2023-01-17T12:22:20.692Z,63.90
2023-01-17T12:25:00.099Z,52.60
2023-01-17T12:28:03.372Z,54.20
2023-01-17T12:30:36.229Z,62.30
2023-01-17T12:33:34.528Z,50.60
2023-01-17T12:36:47.854Z,46.60
2023-01-17T12:39:15.179Z,56.20
2023-01-17T12:42:13.672Z,48.10
2023-01-17T12:44:52.656Z,52.00
2023-01-17T12:47:20.166Z,57.10
2023-01-17T12:50:04.443Z,57.40
2023-01-17T12:52:44.512Z,59.60
2023-01-17T12:55:17.860Z,50.00
2023-01-17T12:57:46.479Z,52.20
2023-01-17T13:00:18.052Z,52.10
2023-01-17T13:03:12.053Z,55.00
2023-01-17T13:05:41.965Z,45.80
2023-01-17T13:08:34.548Z,56.80
2023-01-17T13:11:18.770Z,56.60
2023-01-17T13:16:24.232Z,56.30
2023-01-17T13:18:51.193Z,48.00
2023-01-17T13:21:31.336Z,62.00
2023-01-17T13:24:02.541Z,56.10
2023-01-17T13:26:56.369Z,48.60
2023-01-17T13:29:59.947Z,59.10
2023-01-17T13:32:33.025Z,57.80
2023-01-17T13:35:44.717Z,56.20
2023-01-17T13:38:30.399Z,63.90
2023-01-17T13:41:01.424Z,50.50
2023-01-17T13:43:36.109Z,43.80
2023-01-17T13:46:06.704Z,52.10
2023-01-17T13:48:37.242Z,59.10
2023-01-17T13:51:10.725Z,48.40
2023-01-17T13:53:40.584Z,55.60
2023-01-17T13:56:19.909Z,60.00
2023-01-17T13:58:57.675Z,55.80
2023-01-17T14:01:24.617Z,60.40
2023-01-17T14:03:54.379Z,56.30
2023-01-17T14:06:33.195Z,61.70
2023-01-17T14:09:18.475Z,62.90
2023-01-17T14:12:07.146Z,61.20
2023-01-17T14:14:40.198Z,52.50
2023-01-17T14:17:16.281Z,58.50
2023-01-17T14:19:46.333Z,57.50
2023-01-17T14:22:20.694Z,61.30
2023-01-17T14:24:56.801Z,69.20
2023-01-17T14:27:24.403Z,66.70
2023-01-17T14:30:01.820Z,62.40
2023-01-17T14:32:37.719Z,65.80
2023-01-17T14:35:05.192Z,62.90
2023-01-17T14:37:32.029Z,69.00
2023-01-17T14:39:59.556Z,73.80
2023-01-17T14:42:28.089Z,69.30
2023-01-17T14:45:03.951Z,69.90
2023-01-17T14:47:32.627Z,60.50
2023-01-17T14:50:30.389Z,69.30
2023-01-17T14:53:12.745Z,74.80
2023-01-17T14:55:50.672Z,61.90
2023-01-17T14:58:34.367Z,68.10
2023-01-17T15:01:05.878Z,79.70
2023-01-17T15:03:35.538Z,70.50
2023-01-17T15:06:11.278Z,70.40
2023-01-17T15:08:37.971Z,71.00
2023-01-17T15:11:09.618Z,75.00
2023-01-17T15:13:44.643Z,63.80
2023-01-17T15:16:24.208Z,64.20
2023-01-17T15:18:51.875Z,53.10
2023-01-17T15:21:20.517Z,57.70
2023-01-17T15:23:49.428Z,59.80
2023-01-17T15:26:17.603Z,63.20
2023-01-17T15:28:44.965Z,55.30
2023-01-17T15:31:17.145Z,62.60
2023-01-17T15:33:46.727Z,66.40
2023-01-17T15:36:32.463Z,61.20
2023-01-17T15:39:13.484Z,58.60
2023-01-17T15:41:40.718Z,59.60
2023-01-17T15:44:07.412Z,58.70
2023-01-17T15:46:40.394Z,61.20
2023-01-17T15:49:24.023Z,58.30
2023-01-17T15:51:52.143Z,63.40
2023-01-17T15:54:28.528Z,50.00
2023-01-17T15:57:06.506Z,55.00
2023-01-17T15:59:44.014Z,59.60
2023-01-17T16:02:26.130Z,63.80
2023-01-17T16:04:53.871Z,64.40
2023-01-17T16:07:30.881Z,58.50
2023-01-17T16:10:08.142Z,67.50
2023-01-17T16:12:34.837Z,62.30
2023-01-17T16:15:12.294Z,52.90
2023-01-17T16:17:41.177Z,62.10
2023-01-17T16:20:19.776Z,54.00
2023-01-17T16:22:47.023Z,58.10
2023-01-17T16:25:15.637Z,60.50
2023-01-17T16:27:43.281Z,65.50
2023-01-17T16:30:17.951Z,61.60
2023-01-17T16:32:48.456Z,64.50
2023-01-17T16:35:22.756Z,66.00
2023-01-17T16:37:50.450Z,65.00
2023-01-17T16:40:18.831Z,52.10
2023-01-17T16:42:45.732Z,54.80
2023-01-17T16:45:12.922Z,57.10
2023-01-17T16:47:41.073Z,49.40
2023-01-17T16:50:09.493Z,55.20
2023-01-17T16:52:36.201Z,61.70
2023-01-17T16:55:06.997Z,54.50
2023-01-17T16:57:33.689Z,55.40
2023-01-17T17:00:00.595Z,58.60
2023-01-17T17:02:27.337Z,48.20
2023-01-17T17:04:54.098Z,49.00
2023-01-17T17:07:20.779Z,61.70
2023-01-17T17:09:47.691Z,47.60
2023-01-17T17:12:14.388Z,55.90
2023-01-17T17:14:41.388Z,38.60
2023-01-17T17:17:08.296Z,52.60
2023-01-17T17:19:35.194Z,56.60
2023-01-17T17:22:02.188Z,52.80
2023-01-17T17:24:29.013Z,50.00
2023-01-17T17:26:56.197Z,54.50
2023-01-17T17:29:22.978Z,50.80
2023-01-17T17:31:49.789Z,55.50
2023-01-17T17:34:16.628Z,55.50
2023-01-17T17:36:43.406Z,55.20
2023-01-17T17:39:12.568Z,51.30
2023-01-17T17:41:41.822Z,52.50
2023-01-17T17:44:08.616Z,60.50
2023-01-17T17:46:39.200Z,67.20
2023-01-17T17:49:06.881Z,69.30
2023-01-17T17:51:35.356Z,68.50
2023-01-17T17:54:04.011Z,65.10
2023-01-17T17:56:31.228Z,57.50
2023-01-17T17:58:58.646Z,56.90
2023-01-17T18:01:25.641Z,49.10
2023-01-17T18:03:53.391Z,59.80
2023-01-17T18:06:20.560Z,54.50
2023-01-17T18:08:47.396Z,51.70
2023-01-17T18:11:18.430Z,46.10
2023-01-17T18:13:47.824Z,56.40
2023-01-17T18:16:15.947Z,55.00
2023-01-17T18:18:48.890Z,44.90
2023-01-17T18:21:17.812Z,49.00
2023-01-17T18:23:44.894Z,49.00
2023-01-17T18:26:34.604Z,64.80
2023-01-17T18:29:02.056Z,61.30
2023-01-17T18:31:29.772Z,62.20
2023-01-17T18:34:01.086Z,54.00
2023-01-17T18:36:28.996Z,47.90
2023-01-17T18:38:55.996Z,53.90
2023-01-17T18:41:28.063Z,46.40
2023-01-17T18:43:57.899Z,45.30
2023-01-17T18:46:28.568Z,46.30
2023-01-17T18:48:56.854Z,52.80
2023-01-17T18:51:23.683Z,51.10
2023-01-17T18:53:50.432Z,47.20
2023-01-17T18:56:21.175Z,47.30
2023-01-17T18:58:48.875Z,53.50
2023-01-17T19:01:20.718Z,48.20
2023-01-17T19:03:48.693Z,50.30
2023-01-17T19:06:17.878Z,47.70
2023-01-17T19:08:45.188Z,46.90
2023-01-17T19:11:12.511Z,43.30
2023-01-17T19:13:39.429Z,49.10
2023-01-17T19:16:08.621Z,43.10
2023-01-17T19:18:35.708Z,50.20
2023-01-17T19:21:10.708Z,46.00
2023-01-17T19:23:37.728Z,45.20
2023-01-17T19:26:05.052Z,42.00
2023-01-17T19:28:33.185Z,42.70
2023-01-17T19:31:03.038Z,44.70
2023-01-17T19:33:29.713Z,47.50
2023-01-17T19:36:04.163Z,38.50
2023-01-17T19:38:30.860Z,40.10
2023-01-17T19:40:57.676Z,40.30
2023-01-17T19:43:24.339Z,45.20
2023-01-17T19:45:58.602Z,42.50
2023-01-17T19:48:26.085Z,38.50
2023-01-17T19:50:54.693Z,39.90
2023-01-17T19:53:22.720Z,43.30
2023-01-17T19:55:49.482Z,37.40
2023-01-17T19:58:16.218Z,42.80
2023-01-17T20:00:46.650Z,36.60
2023-01-17T20:03:13.784Z,41.00
2023-01-17T20:05:40.506Z,37.90
2023-01-17T20:08:07.138Z,40.60
2023-01-17T20:10:34.067Z,32.90
2023-01-17T20:13:00.951Z,40.00
2023-01-17T20:15:27.985Z,44.40
2023-01-17T20:17:55.052Z,36.30
2023-01-17T20:20:22.933Z,40.30
2023-01-17T20:22:49.706Z,41.10
2023-01-17T20:25:16.508Z,44.10
2023-01-17T20:27:44.440Z,40.00
2023-01-17T20:30:20.027Z,36.90
2023-01-17T20:32:47.974Z,42.40
2023-01-17T20:35:15.549Z,39.00
2023-01-17T20:37:42.389Z,40.80
2023-01-17T20:40:10.122Z,42.50
2023-01-17T20:42:37.082Z,47.30
2023-01-17T20:45:04.466Z,43.30
2023-01-17T20:47:31.395Z,41.30
2023-01-17T20:49:59.020Z,45.80
2023-01-17T20:52:25.674Z,48.90
2023-01-17T20:54:52.403Z,42.00
2023-01-17T20:57:19.152Z,46.90
2023-01-17T20:59:45.806Z,48.20
2023-01-17T21:02:12.691Z,45.50
2023-01-17T21:04:39.498Z,54.20
2023-01-17T21:07:06.176Z,48.20
2023-01-17T21:09:32.834Z,44.00
2023-01-17T21:12:01.323Z,44.90
2023-01-17T21:14:31.332Z,49.70
2023-01-17T21:16:58.091Z,44.40
2023-01-17T21:19:24.778Z,46.30
2023-01-17T21:21:51.632Z,38.50
2023-01-17T21:24:19.595Z,45.70
2023-01-17T21:26:46.429Z,43.10
2023-01-17T21:29:13.467Z,45.40
2023-01-17T21:31:40.973Z,38.60
2023-01-17T21:34:08.990Z,43.00
2023-01-17T21:36:39.578Z,47.80
2023-01-17T21:39:09.820Z,38.30
2023-01-17T21:41:39.407Z,44.00
2023-01-17T21:44:08.547Z,41.50
2023-01-17T21:46:38.765Z,42.90
2023-01-17T21:49:05.965Z,39.50
2023-01-17T21:51:52.307Z,39.00
2023-01-17T21:54:47.213Z,39.70
2023-01-17T21:57:36.561Z,41.30
2023-01-17T22:00:08.257Z,41.40
2023-01-17T22:02:44.050Z,42.00
2023-01-17T22:05:10.790Z,54.40
2023-01-17T22:07:38.996Z,41.80
2023-01-17T22:10:06.626Z,46.20
2023-01-17T22:12:33.297Z,38.20
2023-01-17T22:14:59.996Z,38.70
2023-01-17T22:17:26.673Z,40.70
2023-01-17T22:19:53.350Z,37.90
2023-01-17T22:22:20.044Z,42.90
2023-01-17T22:24:46.870Z,37.70
2023-01-17T22:27:13.723Z,41.10
2023-01-17T22:29:40.504Z,41.30
2023-01-17T22:32:08.191Z,37.20
2023-01-17T22:34:34.857Z,40.10
2023-01-17T22:37:03.948Z,42.30
2023-01-17T22:39:30.651Z,36.70
2023-01-17T22:41:57.391Z,38.10
2023-01-17T22:44:24.124Z,41.30
2023-01-17T22:46:50.768Z,45.90
2023-01-17T22:49:18.586Z,42.50
2023-01-17T22:51:45.279Z,40.80
2023-01-17T22:54:12.185Z,37.50
2023-01-17T22:56:38.917Z,37.00
2023-01-17T22:59:11.363Z,42.00
2023-01-17T23:01:42.019Z,38.20
2023-01-17T23:04:11.805Z,44.90
2023-01-17T23:06:39.108Z,41.40
2023-01-17T23:09:07.644Z,40.60
2023-01-17T23:11:43.746Z,37.70
2023-01-17T23:14:16.024Z,42.00
2023-01-17T23:17:07.975Z,36.30
2023-01-17T23:19:36.247Z,42.40
2023-01-17T23:22:16.502Z,43.40
2023-01-17T23:24:56.118Z,37.50
2023-01-17T23:27:41.872Z,34.80
2023-01-17T23:30:16.953Z,44.60
2023-01-17T23:32:45.731Z,37.70
2023-01-17T23:35:12.456Z,43.50
2023-01-17T23:37:57.879Z,42.00
2023-01-17T23:40:24.605Z,42.30
2023-01-17T23:43:09.951Z,46.80
2023-01-17T23:45:37.444Z,40.70
2023-01-17T23:48:05.657Z,46.70
2023-01-17T23:50:32.979Z,45.10
2023-01-17T23:53:00.099Z,40.40
2023-01-17T23:55:27.450Z,44.40
2023-01-17T23:57:54.960Z,43.80
